sensor_id;sensor_type;location;lat;lon;timestamp;P1;durP1;ratioP1;P2;durP2;ratioP2
51594;SDS011;37677;53.254;6.594;2023-05-21T00:02:09;6.70;;;4.05;;
51594;SDS011;37677;53.254;6.594;2023-05-21T00:04:39;8.40;;;4.68;;
51594;SDS011;37677;53.254;6.594;2023-05-21T00:07:05;6.57;;;4.10;;
51594;SDS011;37677;53.254;6.594;2023-05-21T00:09:32;6.57;;;4.25;;
51594;SDS011;37677;53.254;6.594;2023-05-21T00:11:59;6.55;;;4.50;;
51594;SDS011;37677;53.254;6.594;2023-05-21T00:14:24;6.47;;;4.10;;
51594;SDS011;37677;53.254;6.594;2023-05-21T00:16:50;8.23;;;4.57;;
51594;SDS011;37677;53.254;6.594;2023-05-21T00:19:16;6.43;;;4.25;;
51594;SDS011;37677;53.254;6.594;2023-05-21T00:21:41;7.57;;;4.07;;
51594;SDS011;37677;53.254;6.594;2023-05-21T00:24:09;8.95;;;4.82;;
51594;SDS011;37677;53.254;6.594;2023-05-21T00:26:35;7.57;;;4.15;;
51594;SDS011;37677;53.254;6.594;2023-05-21T00:29:01;6.82;;;4.68;;
51594;SDS011;37677;53.254;6.594;2023-05-21T00:31:27;5.90;;;4.63;;
51594;SDS011;37677;53.254;6.594;2023-05-21T00:33:53;5.03;;;4.00;;
51594;SDS011;37677;53.254;6.594;2023-05-21T00:36:18;6.38;;;4.20;;
51594;SDS011;37677;53.254;6.594;2023-05-21T00:38:48;7.28;;;4.30;;
51594;SDS011;37677;53.254;6.594;2023-05-21T00:41:15;7.72;;;4.45;;
51594;SDS011;37677;53.254;6.594;2023-05-21T00:43:41;7.78;;;4.53;;
51594;SDS011;37677;53.254;6.594;2023-05-21T00:46:16;7.15;;;4.35;;
51594;SDS011;37677;53.254;6.594;2023-05-21T00:48:45;7.82;;;3.85;;
51594;SDS011;37677;53.254;6.594;2023-05-21T00:51:14;5.28;;;4.00;;
51594;SDS011;37677;53.254;6.594;2023-05-21T00:53:40;7.80;;;4.30;;
51594;SDS011;37677;53.254;6.594;2023-05-21T00:56:08;10.02;;;4.85;;
51594;SDS011;37677;53.254;6.594;2023-05-21T00:58:34;7.72;;;4.05;;
51594;SDS011;37677;53.254;6.594;2023-05-21T01:01:01;11.68;;;4.53;;
51594;SDS011;37677;53.254;6.594;2023-05-21T01:03:30;5.63;;;4.78;;
51594;SDS011;37677;53.254;6.594;2023-05-21T01:06:03;6.40;;;4.13;;
51594;SDS011;37677;53.254;6.594;2023-05-21T01:08:30;7.80;;;4.60;;
51594;SDS011;37677;53.254;6.594;2023-05-21T01:10:58;7.40;;;5.05;;
51594;SDS011;37677;53.254;6.594;2023-05-21T01:13:26;7.22;;;4.28;;
51594;SDS011;37677;53.254;6.594;2023-05-21T01:15:52;6.18;;;4.82;;
51594;SDS011;37677;53.254;6.594;2023-05-21T01:18:19;6.40;;;5.20;;
51594;SDS011;37677;53.254;6.594;2023-05-21T01:20:48;9.10;;;4.68;;
51594;SDS011;37677;53.254;6.594;2023-05-21T01:23:17;6.82;;;4.32;;
51594;SDS011;37677;53.254;6.594;2023-05-21T01:25:44;6.60;;;4.78;;
51594;SDS011;37677;53.254;6.594;2023-05-21T01:28:11;8.48;;;5.28;;
51594;SDS011;37677;53.254;6.594;2023-05-21T01:30:38;7.05;;;4.68;;
51594;SDS011;37677;53.254;6.594;2023-05-21T01:35:53;10.23;;;5.28;;
51594;SDS011;37677;53.254;6.594;2023-05-21T01:38:47;7.95;;;4.30;;
51594;SDS011;37677;53.254;6.594;2023-05-21T01:41:21;6.38;;;5.07;;
51594;SDS011;37677;53.254;6.594;2023-05-21T01:43:48;7.28;;;4.88;;
51594;SDS011;37677;53.254;6.594;2023-05-21T01:46:19;7.00;;;5.50;;
51594;SDS011;37677;53.254;6.594;2023-05-21T01:48:47;6.50;;;5.05;;
51594;SDS011;37677;53.254;6.594;2023-05-21T01:51:17;10.88;;;5.68;;
51594;SDS011;37677;53.254;6.594;2023-05-21T01:53:43;8.32;;;5.38;;
51594;SDS011;37677;53.254;6.594;2023-05-21T01:56:09;8.88;;;5.65;;
51594;SDS011;37677;53.254;6.594;2023-05-21T01:58:37;7.78;;;5.85;;
51594;SDS011;37677;53.254;6.594;2023-05-21T02:01:03;7.57;;;5.85;;
51594;SDS011;37677;53.254;6.594;2023-05-21T02:03:29;10.63;;;6.40;;
51594;SDS011;37677;53.254;6.594;2023-05-21T02:05:55;8.75;;;5.90;;
51594;SDS011;37677;53.254;6.594;2023-05-21T02:08:21;11.80;;;6.20;;
51594;SDS011;37677;53.254;6.594;2023-05-21T02:10:51;8.32;;;5.75;;
51594;SDS011;37677;53.254;6.594;2023-05-21T02:13:17;11.88;;;6.20;;
51594;SDS011;37677;53.254;6.594;2023-05-21T02:15:46;11.30;;;6.50;;
51594;SDS011;37677;53.254;6.594;2023-05-21T02:18:12;8.02;;;6.35;;
51594;SDS011;37677;53.254;6.594;2023-05-21T02:20:40;10.23;;;6.05;;
51594;SDS011;37677;53.254;6.594;2023-05-21T02:23:07;10.63;;;6.13;;
51594;SDS011;37677;53.254;6.594;2023-05-21T02:25:33;8.30;;;6.07;;
51594;SDS011;37677;53.254;6.594;2023-05-21T02:27:58;9.80;;;6.20;;
51594;SDS011;37677;53.254;6.594;2023-05-21T02:30:25;10.23;;;6.35;;
51594;SDS011;37677;53.254;6.594;2023-05-21T02:32:51;12.05;;;6.20;;
51594;SDS011;37677;53.254;6.594;2023-05-21T02:35:22;10.77;;;6.10;;
51594;SDS011;37677;53.254;6.594;2023-05-21T02:37:48;10.05;;;6.53;;
51594;SDS011;37677;53.254;6.594;2023-05-21T02:40:17;9.60;;;6.75;;
51594;SDS011;37677;53.254;6.594;2023-05-21T02:42:45;9.98;;;6.45;;
51594;SDS011;37677;53.254;6.594;2023-05-21T02:45:11;9.50;;;6.55;;
51594;SDS011;37677;53.254;6.594;2023-05-21T02:47:37;10.98;;;7.35;;
51594;SDS011;37677;53.254;6.594;2023-05-21T02:50:04;11.10;;;7.05;;
51594;SDS011;37677;53.254;6.594;2023-05-21T02:52:31;11.95;;;7.55;;
51594;SDS011;37677;53.254;6.594;2023-05-21T02:54:57;9.65;;;7.78;;
51594;SDS011;37677;53.254;6.594;2023-05-21T02:57:22;9.82;;;7.43;;
51594;SDS011;37677;53.254;6.594;2023-05-21T02:59:51;17.52;;;8.35;;
51594;SDS011;37677;53.254;6.594;2023-05-21T03:02:17;10.55;;;8.00;;
51594;SDS011;37677;53.254;6.594;2023-05-21T03:04:43;11.57;;;7.72;;
51594;SDS011;37677;53.254;6.594;2023-05-21T03:07:12;11.07;;;7.60;;
51594;SDS011;37677;53.254;6.594;2023-05-21T03:09:39;14.02;;;7.40;;
51594;SDS011;37677;53.254;6.594;2023-05-21T03:12:08;12.02;;;8.13;;
51594;SDS011;37677;53.254;6.594;2023-05-21T03:14:38;9.50;;;7.65;;
51594;SDS011;37677;53.254;6.594;2023-05-21T03:17:03;13.63;;;8.05;;
51594;SDS011;37677;53.254;6.594;2023-05-21T03:19:32;11.25;;;8.25;;
51594;SDS011;37677;53.254;6.594;2023-05-21T03:22:00;11.75;;;7.90;;
51594;SDS011;37677;53.254;6.594;2023-05-21T03:24:27;9.18;;;7.65;;
51594;SDS011;37677;53.254;6.594;2023-05-21T03:26:54;17.35;;;7.82;;
51594;SDS011;37677;53.254;6.594;2023-05-21T03:29:20;12.63;;;8.02;;
51594;SDS011;37677;53.254;6.594;2023-05-21T03:31:46;11.77;;;8.65;;
51594;SDS011;37677;53.254;6.594;2023-05-21T03:34:11;10.20;;;8.23;;
51594;SDS011;37677;53.254;6.594;2023-05-21T03:36:37;13.70;;;7.75;;
51594;SDS011;37677;53.254;6.594;2023-05-21T03:39:03;12.60;;;8.02;;
51594;SDS011;37677;53.254;6.594;2023-05-21T03:41:29;10.48;;;7.70;;
51594;SDS011;37677;53.254;6.594;2023-05-21T03:43:54;13.63;;;7.45;;
51594;SDS011;37677;53.254;6.594;2023-05-21T03:46:20;14.65;;;7.40;;
51594;SDS011;37677;53.254;6.594;2023-05-21T03:48:46;14.88;;;7.80;;
51594;SDS011;37677;53.254;6.594;2023-05-21T03:51:11;14.55;;;8.48;;
51594;SDS011;37677;53.254;6.594;2023-05-21T03:53:37;13.70;;;8.38;;
51594;SDS011;37677;53.254;6.594;2023-05-21T03:56:03;13.93;;;7.70;;
51594;SDS011;37677;53.254;6.594;2023-05-21T03:58:29;11.35;;;7.80;;
51594;SDS011;37677;53.254;6.594;2023-05-21T04:00:55;12.82;;;7.47;;
51594;SDS011;37677;53.254;6.594;2023-05-21T04:03:21;12.40;;;7.10;;
51594;SDS011;37677;53.254;6.594;2023-05-21T04:05:47;10.15;;;6.82;;
51594;SDS011;37677;53.254;6.594;2023-05-21T04:08:13;11.73;;;7.30;;
51594;SDS011;37677;53.254;6.594;2023-05-21T04:10:39;13.70;;;7.20;;
51594;SDS011;37677;53.254;6.594;2023-05-21T04:13:04;12.88;;;6.55;;
51594;SDS011;37677;53.254;6.594;2023-05-21T04:15:30;19.63;;;7.35;;
51594;SDS011;37677;53.254;6.594;2023-05-21T04:17:58;15.80;;;6.82;;
51594;SDS011;37677;53.254;6.594;2023-05-21T04:20:24;11.00;;;5.88;;
51594;SDS011;37677;53.254;6.594;2023-05-21T04:22:56;12.95;;;6.05;;
51594;SDS011;37677;53.254;6.594;2023-05-21T04:25:22;14.40;;;5.95;;
51594;SDS011;37677;53.254;6.594;2023-05-21T04:27:49;11.93;;;6.03;;
51594;SDS011;37677;53.254;6.594;2023-05-21T04:30:15;17.77;;;6.55;;
51594;SDS011;37677;53.254;6.594;2023-05-21T04:32:46;16.52;;;5.97;;
51594;SDS011;37677;53.254;6.594;2023-05-21T04:35:12;14.63;;;6.30;;
51594;SDS011;37677;53.254;6.594;2023-05-21T04:37:42;17.70;;;6.40;;
51594;SDS011;37677;53.254;6.594;2023-05-21T04:40:10;11.68;;;5.65;;
51594;SDS011;37677;53.254;6.594;2023-05-21T04:42:45;15.07;;;5.90;;
51594;SDS011;37677;53.254;6.594;2023-05-21T04:45:12;12.65;;;6.35;;
51594;SDS011;37677;53.254;6.594;2023-05-21T04:47:38;12.75;;;6.03;;
51594;SDS011;37677;53.254;6.594;2023-05-21T04:50:04;8.65;;;5.47;;
51594;SDS011;37677;53.254;6.594;2023-05-21T04:52:31;15.50;;;6.45;;
51594;SDS011;37677;53.254;6.594;2023-05-21T04:54:58;9.95;;;5.97;;
51594;SDS011;37677;53.254;6.594;2023-05-21T04:57:25;10.93;;;5.10;;
51594;SDS011;37677;53.254;6.594;2023-05-21T05:00:00;10.80;;;5.50;;
51594;SDS011;37677;53.254;6.594;2023-05-21T05:02:26;11.85;;;6.22;;
51594;SDS011;37677;53.254;6.594;2023-05-21T05:04:51;12.68;;;5.45;;
51594;SDS011;37677;53.254;6.594;2023-05-21T05:07:17;11.75;;;5.95;;
51594;SDS011;37677;53.254;6.594;2023-05-21T05:09:43;10.73;;;5.20;;
51594;SDS011;37677;53.254;6.594;2023-05-21T05:12:08;12.02;;;5.63;;
51594;SDS011;37677;53.254;6.594;2023-05-21T05:14:34;9.85;;;5.63;;
51594;SDS011;37677;53.254;6.594;2023-05-21T05:17:00;12.48;;;5.90;;
51594;SDS011;37677;53.254;6.594;2023-05-21T05:19:26;10.85;;;5.72;;
51594;SDS011;37677;53.254;6.594;2023-05-21T05:21:51;12.32;;;6.07;;
51594;SDS011;37677;53.254;6.594;2023-05-21T05:24:17;10.50;;;5.60;;
51594;SDS011;37677;53.254;6.594;2023-05-21T05:26:43;13.57;;;5.78;;
51594;SDS011;37677;53.254;6.594;2023-05-21T05:29:09;11.75;;;6.15;;
51594;SDS011;37677;53.254;6.594;2023-05-21T05:31:35;11.40;;;5.53;;
51594;SDS011;37677;53.254;6.594;2023-05-21T05:34:03;9.18;;;5.40;;
51594;SDS011;37677;53.254;6.594;2023-05-21T05:36:29;12.15;;;5.93;;
51594;SDS011;37677;53.254;6.594;2023-05-21T05:38:55;9.48;;;5.38;;
51594;SDS011;37677;53.254;6.594;2023-05-21T05:41:21;9.65;;;4.68;;
51594;SDS011;37677;53.254;6.594;2023-05-21T05:43:46;9.60;;;4.95;;
51594;SDS011;37677;53.254;6.594;2023-05-21T05:46:12;10.13;;;5.10;;
51594;SDS011;37677;53.254;6.594;2023-05-21T05:48:38;9.98;;;4.90;;
51594;SDS011;37677;53.254;6.594;2023-05-21T05:51:03;11.50;;;6.00;;
51594;SDS011;37677;53.254;6.594;2023-05-21T05:53:29;9.43;;;5.22;;
51594;SDS011;37677;53.254;6.594;2023-05-21T05:55:56;9.77;;;5.00;;
51594;SDS011;37677;53.254;6.594;2023-05-21T05:58:22;12.13;;;4.88;;
51594;SDS011;37677;53.254;6.594;2023-05-21T06:00:47;10.50;;;5.10;;
51594;SDS011;37677;53.254;6.594;2023-05-21T06:03:13;11.00;;;5.38;;
51594;SDS011;37677;53.254;6.594;2023-05-21T06:05:39;12.27;;;5.35;;
51594;SDS011;37677;53.254;6.594;2023-05-21T06:08:05;12.32;;;5.80;;
51594;SDS011;37677;53.254;6.594;2023-05-21T06:10:31;10.48;;;5.60;;
51594;SDS011;37677;53.254;6.594;2023-05-21T06:12:56;9.27;;;5.30;;
51594;SDS011;37677;53.254;6.594;2023-05-21T06:15:22;7.40;;;4.72;;
51594;SDS011;37677;53.254;6.594;2023-05-21T06:17:48;10.00;;;4.78;;
51594;SDS011;37677;53.254;6.594;2023-05-21T06:20:14;12.07;;;5.45;;
51594;SDS011;37677;53.254;6.594;2023-05-21T06:22:40;13.05;;;5.43;;
51594;SDS011;37677;53.254;6.594;2023-05-21T06:25:06;11.30;;;4.97;;
51594;SDS011;37677;53.254;6.594;2023-05-21T06:27:32;10.85;;;5.68;;
51594;SDS011;37677;53.254;6.594;2023-05-21T06:29:58;10.70;;;5.68;;
51594;SDS011;37677;53.254;6.594;2023-05-21T06:32:24;15.15;;;5.85;;
51594;SDS011;37677;53.254;6.594;2023-05-21T06:34:49;14.35;;;5.85;;
51594;SDS011;37677;53.254;6.594;2023-05-21T06:37:18;11.38;;;6.07;;
51594;SDS011;37677;53.254;6.594;2023-05-21T06:39:47;13.93;;;6.03;;
51594;SDS011;37677;53.254;6.594;2023-05-21T06:42:14;8.88;;;5.20;;
51594;SDS011;37677;53.254;6.594;2023-05-21T06:44:39;10.73;;;5.10;;
51594;SDS011;37677;53.254;6.594;2023-05-21T06:47:05;11.38;;;4.47;;
51594;SDS011;37677;53.254;6.594;2023-05-21T06:49:31;9.13;;;5.10;;
51594;SDS011;37677;53.254;6.594;2023-05-21T06:51:57;8.43;;;4.88;;
51594;SDS011;37677;53.254;6.594;2023-05-21T06:54:22;9.25;;;4.43;;
51594;SDS011;37677;53.254;6.594;2023-05-21T06:56:48;12.35;;;4.50;;
51594;SDS011;37677;53.254;6.594;2023-05-21T06:59:14;10.30;;;5.10;;
51594;SDS011;37677;53.254;6.594;2023-05-21T07:01:40;10.07;;;4.70;;
51594;SDS011;37677;53.254;6.594;2023-05-21T07:04:06;10.45;;;4.72;;
51594;SDS011;37677;53.254;6.594;2023-05-21T07:06:33;8.18;;;4.10;;
51594;SDS011;37677;53.254;6.594;2023-05-21T07:09:00;13.27;;;5.63;;
51594;SDS011;37677;53.254;6.594;2023-05-21T07:11:26;10.73;;;4.55;;
51594;SDS011;37677;53.254;6.594;2023-05-21T07:13:53;7.35;;;3.88;;
51594;SDS011;37677;53.254;6.594;2023-05-21T07:16:20;9.63;;;3.85;;
51594;SDS011;37677;53.254;6.594;2023-05-21T07:18:46;12.43;;;4.20;;
51594;SDS011;37677;53.254;6.594;2023-05-21T07:21:12;8.98;;;4.38;;
51594;SDS011;37677;53.254;6.594;2023-05-21T07:23:38;8.45;;;4.10;;
51594;SDS011;37677;53.254;6.594;2023-05-21T07:26:04;8.05;;;4.20;;
51594;SDS011;37677;53.254;6.594;2023-05-21T07:28:30;10.00;;;4.32;;
51594;SDS011;37677;53.254;6.594;2023-05-21T07:30:56;7.35;;;3.92;;
51594;SDS011;37677;53.254;6.594;2023-05-21T07:33:21;8.15;;;4.47;;
51594;SDS011;37677;53.254;6.594;2023-05-21T07:35:47;13.77;;;4.60;;
51594;SDS011;37677;53.254;6.594;2023-05-21T07:38:13;11.13;;;4.78;;
51594;SDS011;37677;53.254;6.594;2023-05-21T07:40:38;8.65;;;3.35;;
51594;SDS011;37677;53.254;6.594;2023-05-21T07:43:04;4.88;;;2.60;;
51594;SDS011;37677;53.254;6.594;2023-05-21T07:45:30;10.82;;;4.65;;
51594;SDS011;37677;53.254;6.594;2023-05-21T07:47:55;9.60;;;4.63;;
51594;SDS011;37677;53.254;6.594;2023-05-21T07:50:21;9.15;;;3.78;;
51594;SDS011;37677;53.254;6.594;2023-05-21T07:52:47;10.25;;;4.63;;
51594;SDS011;37677;53.254;6.594;2023-05-21T07:55:16;9.75;;;4.10;;
51594;SDS011;37677;53.254;6.594;2023-05-21T07:57:41;5.97;;;3.60;;
51594;SDS011;37677;53.254;6.594;2023-05-21T08:00:07;8.95;;;3.92;;
51594;SDS011;37677;53.254;6.594;2023-05-21T08:02:34;7.70;;;4.00;;
51594;SDS011;37677;53.254;6.594;2023-05-21T08:05:00;5.53;;;3.80;;
51594;SDS011;37677;53.254;6.594;2023-05-21T08:07:25;9.48;;;4.22;;
51594;SDS011;37677;53.254;6.594;2023-05-21T08:09:52;14.50;;;4.35;;
51594;SDS011;37677;53.254;6.594;2023-05-21T08:12:18;8.15;;;4.13;;
51594;SDS011;37677;53.254;6.594;2023-05-21T08:14:44;14.82;;;4.28;;
51594;SDS011;37677;53.254;6.594;2023-05-21T08:17:10;11.05;;;4.22;;
51594;SDS011;37677;53.254;6.594;2023-05-21T08:19:35;8.57;;;4.53;;
51594;SDS011;37677;53.254;6.594;2023-05-21T08:22:01;8.18;;;4.28;;
51594;SDS011;37677;53.254;6.594;2023-05-21T08:24:27;11.25;;;4.25;;
51594;SDS011;37677;53.254;6.594;2023-05-21T08:26:53;15.10;;;4.07;;
51594;SDS011;37677;53.254;6.594;2023-05-21T08:29:26;16.27;;;5.03;;
51594;SDS011;37677;53.254;6.594;2023-05-21T08:31:52;10.63;;;4.22;;
51594;SDS011;37677;53.254;6.594;2023-05-21T08:34:17;11.15;;;4.28;;
51594;SDS011;37677;53.254;6.594;2023-05-21T08:36:43;8.02;;;4.13;;
51594;SDS011;37677;53.254;6.594;2023-05-21T08:39:10;10.43;;;4.50;;
51594;SDS011;37677;53.254;6.594;2023-05-21T08:41:37;8.45;;;4.03;;
51594;SDS011;37677;53.254;6.594;2023-05-21T08:44:04;12.45;;;4.57;;
51594;SDS011;37677;53.254;6.594;2023-05-21T08:46:36;8.13;;;4.65;;
51594;SDS011;37677;53.254;6.594;2023-05-21T08:49:05;11.63;;;4.47;;
51594;SDS011;37677;53.254;6.594;2023-05-21T08:51:36;10.25;;;4.40;;
51594;SDS011;37677;53.254;6.594;2023-05-21T08:54:03;5.32;;;4.15;;
51594;SDS011;37677;53.254;6.594;2023-05-21T08:56:33;8.30;;;4.18;;
51594;SDS011;37677;53.254;6.594;2023-05-21T08:59:00;7.30;;;4.18;;
51594;SDS011;37677;53.254;6.594;2023-05-21T09:01:26;10.45;;;3.80;;
51594;SDS011;37677;53.254;6.594;2023-05-21T09:03:55;8.07;;;4.13;;
51594;SDS011;37677;53.254;6.594;2023-05-21T09:06:21;9.98;;;3.88;;
51594;SDS011;37677;53.254;6.594;2023-05-21T09:08:52;7.65;;;3.70;;
51594;SDS011;37677;53.254;6.594;2023-05-21T09:11:25;6.82;;;3.80;;
51594;SDS011;37677;53.254;6.594;2023-05-21T09:13:51;9.88;;;3.80;;
51594;SDS011;37677;53.254;6.594;2023-05-21T09:16:18;8.40;;;3.88;;
51594;SDS011;37677;53.254;6.594;2023-05-21T09:18:43;8.27;;;4.75;;
51594;SDS011;37677;53.254;6.594;2023-05-21T09:21:22;12.43;;;4.20;;
51594;SDS011;37677;53.254;6.594;2023-05-21T09:23:52;9.05;;;4.13;;
51594;SDS011;37677;53.254;6.594;2023-05-21T09:26:22;7.10;;;3.83;;
51594;SDS011;37677;53.254;6.594;2023-05-21T09:28:49;5.28;;;3.83;;
51594;SDS011;37677;53.254;6.594;2023-05-21T09:31:15;8.48;;;3.85;;
51594;SDS011;37677;53.254;6.594;2023-05-21T09:33:45;6.97;;;3.60;;
51594;SDS011;37677;53.254;6.594;2023-05-21T09:36:12;8.60;;;3.67;;
51594;SDS011;37677;53.254;6.594;2023-05-21T09:38:37;10.30;;;3.88;;
51594;SDS011;37677;53.254;6.594;2023-05-21T09:41:03;7.57;;;3.88;;
51594;SDS011;37677;53.254;6.594;2023-05-21T09:43:30;6.82;;;4.20;;
51594;SDS011;37677;53.254;6.594;2023-05-21T09:45:56;7.63;;;4.00;;
51594;SDS011;37677;53.254;6.594;2023-05-21T09:48:34;8.15;;;3.83;;
51594;SDS011;37677;53.254;6.594;2023-05-21T09:51:10;7.53;;;3.47;;
51594;SDS011;37677;53.254;6.594;2023-05-21T09:56:09;14.15;;;4.18;;
51594;SDS011;37677;53.254;6.594;2023-05-21T09:58:35;7.35;;;3.92;;
51594;SDS011;37677;53.254;6.594;2023-05-21T10:01:02;7.28;;;4.18;;
51594;SDS011;37677;53.254;6.594;2023-05-21T10:03:28;6.60;;;3.85;;
51594;SDS011;37677;53.254;6.594;2023-05-21T10:05:56;9.20;;;4.00;;
51594;SDS011;37677;53.254;6.594;2023-05-21T10:08:25;8.15;;;4.15;;
51594;SDS011;37677;53.254;6.594;2023-05-21T10:10:53;9.60;;;4.30;;
51594;SDS011;37677;53.254;6.594;2023-05-21T10:13:20;5.05;;;3.40;;
51594;SDS011;37677;53.254;6.594;2023-05-21T10:15:52;8.23;;;3.70;;
51594;SDS011;37677;53.254;6.594;2023-05-21T10:18:24;8.82;;;4.15;;
51594;SDS011;37677;53.254;6.594;2023-05-21T10:20:54;9.48;;;3.70;;
51594;SDS011;37677;53.254;6.594;2023-05-21T10:23:20;7.93;;;3.78;;
51594;SDS011;37677;53.254;6.594;2023-05-21T10:25:48;7.40;;;3.47;;
51594;SDS011;37677;53.254;6.594;2023-05-21T10:28:16;8.63;;;3.72;;
51594;SDS011;37677;53.254;6.594;2023-05-21T10:30:43;10.25;;;4.15;;
51594;SDS011;37677;53.254;6.594;2023-05-21T10:33:10;8.40;;;3.90;;
51594;SDS011;37677;53.254;6.594;2023-05-21T10:35:40;9.10;;;4.18;;
51594;SDS011;37677;53.254;6.594;2023-05-21T10:38:08;8.15;;;4.10;;
51594;SDS011;37677;53.254;6.594;2023-05-21T10:40:35;7.63;;;4.15;;
51594;SDS011;37677;53.254;6.594;2023-05-21T10:43:24;6.82;;;3.83;;
51594;SDS011;37677;53.254;6.594;2023-05-21T10:54:41;12.05;;;4.68;;
51594;SDS011;37677;53.254;6.594;2023-05-21T10:57:31;7.60;;;4.72;;
51594;SDS011;37677;53.254;6.594;2023-05-21T11:00:17;10.63;;;4.43;;
51594;SDS011;37677;53.254;6.594;2023-05-21T11:02:45;14.65;;;4.90;;
51594;SDS011;37677;53.254;6.594;2023-05-21T11:05:12;9.05;;;4.72;;
51594;SDS011;37677;53.254;6.594;2023-05-21T11:07:51;13.63;;;5.13;;
51594;SDS011;37677;53.254;6.594;2023-05-21T11:10:30;9.18;;;4.82;;
51594;SDS011;37677;53.254;6.594;2023-05-21T11:13:11;10.32;;;4.45;;
51594;SDS011;37677;53.254;6.594;2023-05-21T11:18:55;9.57;;;4.88;;
51594;SDS011;37677;53.254;6.594;2023-05-21T11:21:09;8.27;;;4.93;;
51594;SDS011;37677;53.254;6.594;2023-05-21T11:23:54;10.73;;;5.03;;
51594;SDS011;37677;53.254;6.594;2023-05-21T11:26:26;10.13;;;5.22;;
51594;SDS011;37677;53.254;6.594;2023-05-21T11:31:28;12.98;;;6.03;;
51594;SDS011;37677;53.254;6.594;2023-05-21T11:34:17;13.38;;;6.22;;
51594;SDS011;37677;53.254;6.594;2023-05-21T11:39:43;9.88;;;5.93;;
51594;SDS011;37677;53.254;6.594;2023-05-21T11:42:10;12.25;;;6.07;;
51594;SDS011;37677;53.254;6.594;2023-05-21T11:44:39;10.60;;;5.90;;
51594;SDS011;37677;53.254;6.594;2023-05-21T11:47:07;13.05;;;6.32;;
51594;SDS011;37677;53.254;6.594;2023-05-21T11:49:34;11.40;;;6.20;;
51594;SDS011;37677;53.254;6.594;2023-05-21T11:52:01;9.68;;;6.10;;
51594;SDS011;37677;53.254;6.594;2023-05-21T11:54:28;15.48;;;6.18;;
51594;SDS011;37677;53.254;6.594;2023-05-21T11:56:58;9.88;;;6.63;;
51594;SDS011;37677;53.254;6.594;2023-05-21T11:59:25;13.25;;;7.03;;
51594;SDS011;37677;53.254;6.594;2023-05-21T12:01:51;10.10;;;6.28;;
51594;SDS011;37677;53.254;6.594;2023-05-21T12:04:17;12.30;;;6.72;;
51594;SDS011;37677;53.254;6.594;2023-05-21T12:06:43;13.52;;;6.93;;
51594;SDS011;37677;53.254;6.594;2023-05-21T12:09:09;13.05;;;7.88;;
51594;SDS011;37677;53.254;6.594;2023-05-21T12:11:39;13.07;;;7.22;;
51594;SDS011;37677;53.254;6.594;2023-05-21T12:14:08;13.82;;;8.30;;
51594;SDS011;37677;53.254;6.594;2023-05-21T12:16:35;12.68;;;7.50;;
51594;SDS011;37677;53.254;6.594;2023-05-21T12:19:03;13.88;;;8.40;;
51594;SDS011;37677;53.254;6.594;2023-05-21T12:21:30;16.73;;;8.35;;
51594;SDS011;37677;53.254;6.594;2023-05-21T12:23:56;13.90;;;9.05;;
51594;SDS011;37677;53.254;6.594;2023-05-21T12:26:23;9.98;;;7.57;;
51594;SDS011;37677;53.254;6.594;2023-05-21T12:28:53;10.13;;;8.18;;
51594;SDS011;37677;53.254;6.594;2023-05-21T12:31:19;17.67;;;9.32;;
51594;SDS011;37677;53.254;6.594;2023-05-21T12:33:49;11.15;;;8.30;;
51594;SDS011;37677;53.254;6.594;2023-05-21T12:36:22;12.23;;;8.55;;
51594;SDS011;37677;53.254;6.594;2023-05-21T12:38:51;15.57;;;8.43;;
51594;SDS011;37677;53.254;6.594;2023-05-21T12:41:17;16.02;;;8.32;;
51594;SDS011;37677;53.254;6.594;2023-05-21T12:43:43;16.02;;;8.52;;
51594;SDS011;37677;53.254;6.594;2023-05-21T12:46:10;13.40;;;8.63;;
51594;SDS011;37677;53.254;6.594;2023-05-21T12:48:39;14.90;;;8.65;;
51594;SDS011;37677;53.254;6.594;2023-05-21T12:51:06;13.25;;;8.45;;
51594;SDS011;37677;53.254;6.594;2023-05-21T12:53:40;13.45;;;8.60;;
51594;SDS011;37677;53.254;6.594;2023-05-21T12:56:10;18.98;;;10.07;;
51594;SDS011;37677;53.254;6.594;2023-05-21T12:58:36;14.68;;;8.93;;
51594;SDS011;37677;53.254;6.594;2023-05-21T13:01:09;12.27;;;8.50;;
51594;SDS011;37677;53.254;6.594;2023-05-21T13:03:40;15.70;;;9.30;;
51594;SDS011;37677;53.254;6.594;2023-05-21T13:06:07;18.52;;;10.30;;
51594;SDS011;37677;53.254;6.594;2023-05-21T13:08:33;18.27;;;10.20;;
51594;SDS011;37677;53.254;6.594;2023-05-21T13:11:02;14.55;;;9.20;;
51594;SDS011;37677;53.254;6.594;2023-05-21T13:13:30;16.75;;;11.27;;
51594;SDS011;37677;53.254;6.594;2023-05-21T13:15:56;15.40;;;10.43;;
51594;SDS011;37677;53.254;6.594;2023-05-21T13:18:24;16.30;;;11.10;;
51594;SDS011;37677;53.254;6.594;2023-05-21T13:20:50;18.25;;;11.10;;
51594;SDS011;37677;53.254;6.594;2023-05-21T13:23:17;14.27;;;10.65;;
51594;SDS011;37677;53.254;6.594;2023-05-21T13:25:43;13.18;;;10.10;;
51594;SDS011;37677;53.254;6.594;2023-05-21T13:28:09;19.75;;;10.90;;
51594;SDS011;37677;53.254;6.594;2023-05-21T13:30:39;20.27;;;12.23;;
51594;SDS011;37677;53.254;6.594;2023-05-21T13:33:09;16.48;;;12.30;;
51594;SDS011;37677;53.254;6.594;2023-05-21T13:35:37;19.23;;;13.38;;
51594;SDS011;37677;53.254;6.594;2023-05-21T13:38:03;13.88;;;11.23;;
51594;SDS011;37677;53.254;6.594;2023-05-21T13:40:28;20.40;;;12.25;;
51594;SDS011;37677;53.254;6.594;2023-05-21T13:42:54;16.33;;;11.82;;
51594;SDS011;37677;53.254;6.594;2023-05-21T13:45:20;19.42;;;12.55;;
51594;SDS011;37677;53.254;6.594;2023-05-21T13:47:49;18.25;;;11.88;;
51594;SDS011;37677;53.254;6.594;2023-05-21T13:50:15;19.65;;;12.75;;
51594;SDS011;37677;53.254;6.594;2023-05-21T13:52:42;16.65;;;11.60;;
51594;SDS011;37677;53.254;6.594;2023-05-21T13:55:08;19.08;;;12.25;;
51594;SDS011;37677;53.254;6.594;2023-05-21T13:57:34;16.80;;;11.65;;
51594;SDS011;37677;53.254;6.594;2023-05-21T14:00:01;17.13;;;12.63;;
51594;SDS011;37677;53.254;6.594;2023-05-21T14:02:33;20.52;;;12.15;;
51594;SDS011;37677;53.254;6.594;2023-05-21T14:07:29;18.90;;;12.15;;
51594;SDS011;37677;53.254;6.594;2023-05-21T14:12:57;18.45;;;12.30;;
51594;SDS011;37677;53.254;6.594;2023-05-21T14:15:23;19.08;;;11.18;;
51594;SDS011;37677;53.254;6.594;2023-05-21T14:17:48;16.23;;;11.43;;
51594;SDS011;37677;53.254;6.594;2023-05-21T14:20:16;17.65;;;11.30;;
51594;SDS011;37677;53.254;6.594;2023-05-21T14:22:42;16.70;;;11.68;;
51594;SDS011;37677;53.254;6.594;2023-05-21T14:25:08;18.25;;;12.75;;
51594;SDS011;37677;53.254;6.594;2023-05-21T14:27:34;15.90;;;11.52;;
51594;SDS011;37677;53.254;6.594;2023-05-21T14:30:02;23.70;;;13.38;;
51594;SDS011;37677;53.254;6.594;2023-05-21T14:32:28;19.52;;;13.00;;
51594;SDS011;37677;53.254;6.594;2023-05-21T14:34:55;19.48;;;13.32;;
51594;SDS011;37677;53.254;6.594;2023-05-21T14:37:21;15.70;;;13.68;;
51594;SDS011;37677;53.254;6.594;2023-05-21T14:39:47;17.73;;;12.82;;
51594;SDS011;37677;53.254;6.594;2023-05-21T14:42:13;18.80;;;12.88;;
51594;SDS011;37677;53.254;6.594;2023-05-21T14:44:39;18.33;;;13.15;;
51594;SDS011;37677;53.254;6.594;2023-05-21T14:47:05;22.88;;;14.10;;
51594;SDS011;37677;53.254;6.594;2023-05-21T14:49:31;21.80;;;15.88;;
51594;SDS011;37677;53.254;6.594;2023-05-21T14:51:57;21.40;;;15.10;;
51594;SDS011;37677;53.254;6.594;2023-05-21T14:54:23;22.35;;;15.23;;
51594;SDS011;37677;53.254;6.594;2023-05-21T14:56:48;23.15;;;16.25;;
51594;SDS011;37677;53.254;6.594;2023-05-21T14:59:14;19.75;;;15.52;;
51594;SDS011;37677;53.254;6.594;2023-05-21T15:01:40;20.67;;;16.00;;
51594;SDS011;37677;53.254;6.594;2023-05-21T15:04:06;18.13;;;15.43;;
51594;SDS011;37677;53.254;6.594;2023-05-21T15:06:32;17.88;;;15.82;;
51594;SDS011;37677;53.254;6.594;2023-05-21T15:08:59;20.42;;;16.40;;